Time;durP1;ratioP1;P1;durP2;ratioP2;P2;SDS_P1;SDS_P2;PMS_P1;PMS_P2;Temp;Humidity;BMP_temperature;BMP_pressure;BME280_temperature;BME280_humidity;BME280_pressure;Samples;Min_cycle;Max_cycle;Signal;HPM_P1;HPM_P2
2023/10/29 01:53:55;;;;;;;;;7.25;6.75;;;;;;;;4442215;39;53615;-66
2023/10/29 02:00:32;;;;;;;;;6.67;6.67;;;;;;;;6496293;46;8886;-66
2023/10/29 02:06:42;;;;;;;;;9.00;7.33;;;;;;;;6493017;39;8996;-68
2023/10/29 02:12:46;;;;;;;;;7.33;5.33;;;;;;;;6491698;39;8862;-66
2023/10/29 02:18:55;;;;;;;;;6.00;6.00;;;;;;;;6492759;39;8947;-67
2023/10/29 02:24:59;;;;;;;;;5.00;5.00;;;;;;;;6491341;39;8942;-67
2023/10/29 02:31:04;;;;;;;;;4.00;4.00;;;;;;;;6492434;39;9704;-67
2023/10/29 02:37:10;;;;;;;;;7.00;7.00;;;;;;;;6492735;46;8873;-68
2023/10/29 02:43:16;;;;;;;;;9.67;7.00;;;;;;;;6493411;39;8979;-67
2023/10/29 02:49:45;;;;;;;;;5.33;5.33;;;;;;;;6494272;31;8959;-66
2023/10/29 02:55:50;;;;;;;;;10.67;7.33;;;;;;;;6493670;39;9043;-67
2023/10/29 03:02:01;;;;;;;;;6.00;5.67;;;;;;;;6493723;39;9046;-67
2023/10/29 03:08:11;;;;;;;;;7.67;6.33;;;;;;;;6493157;46;8914;-67
2023/10/29 03:14:18;;;;;;;;;4.67;4.67;;;;;;;;6493876;39;9073;-66
2023/10/29 03:20:33;;;;;;;;;7.33;7.33;;;;;;;;6494117;39;8992;-66
2023/10/29 03:26:43;;;;;;;;;8.00;8.00;;;;;;;;6493789;31;8912;-66
2023/10/29 03:33:01;;;;;;;;;9.00;7.50;;;;;;;;6493673;46;8900;-67
2023/10/29 03:39:20;;;;;;;;;9.33;9.33;;;;;;;;6492402;39;8969;-67
2023/10/29 03:45:46;;;;;;;;;9.33;9.33;;;;;;;;6493076;46;8974;-66
2023/10/29 03:51:57;;;;;;;;;13.00;11.00;;;;;;;;6492596;31;9084;-66
2023/10/29 03:58:07;;;;;;;;;12.67;11.33;;;;;;;;6492203;39;8876;-67
2023/10/29 04:04:12;;;;;;;;;11.50;9.00;;;;;;;;6491306;31;8886;-66
2023/10/29 04:10:23;;;;;;;;;20.00;14.75;;;;;;;;6498713;39;8904;-67
2023/10/29 04:16:35;;;;;;;;;17.00;16.00;;;;;;;;6491460;39;8897;-67
2023/10/29 04:22:47;;;;;;;;;16.75;15.25;;;;;;;;6490804;39;8876;-68
2023/10/29 04:28:53;;;;;;;;;23.75;21.25;;;;;;;;6491249;31;9000;-68
2023/10/29 04:34:56;;;;;;;;;20.75;16.50;;;;;;;;6491602;46;8915;-66
2023/10/29 04:41:08;;;;;;;;;20.75;20.50;;;;;;;;6491620;39;8893;-68
2023/10/29 04:47:16;;;;;;;;;20.25;17.75;;;;;;;;6490893;46;8900;-68
2023/10/29 04:53:22;;;;;;;;;21.75;19.50;;;;;;;;6491694;31;8933;-66
2023/10/29 04:59:28;;;;;;;;;22.75;18.00;;;;;;;;6491020;46;8852;-66
2023/10/29 05:05:43;;;;;;;;;24.75;22.50;;;;;;;;6489970;46;8865;-67
2023/10/29 05:11:57;;;;;;;;;18.25;18.25;;;;;;;;6491003;46;8893;-67
2023/10/29 05:18:02;;;;;;;;;23.00;21.00;;;;;;;;6491064;39;9494;-67
2023/10/29 05:24:09;;;;;;;;;22.25;20.00;;;;;;;;6491510;31;8947;-69
2023/10/29 05:30:18;;;;;;;;;20.75;20.75;;;;;;;;6491672;31;9023;-68
2023/10/29 05:36:26;;;;;;;;;21.25;20.00;;;;;;;;6490142;46;8937;-67
2023/10/29 05:42:34;;;;;;;;;22.50;21.00;;;;;;;;6490406;39;8905;-67
2023/10/29 05:48:37;;;;;;;;;22.50;21.25;;;;;;;;6490688;39;8919;-67
2023/10/29 05:54:42;;;;;;;;;20.00;20.00;;;;;;;;6490477;39;9094;-66
2023/10/29 06:00:49;;;;;;;;;23.00;21.25;;;;;;;;6490920;39;9508;-67
2023/10/29 06:06:57;;;;;;;;;26.50;21.50;;;;;;;;6490015;39;8874;-68
2023/10/29 06:13:04;;;;;;;;;23.75;21.75;;;;;;;;6490814;39;8947;-67
2023/10/29 06:19:28;;;;;;;;;29.50;25.00;;;;;;;;6490927;39;9655;-66
2023/10/29 06:25:35;;;;;;;;;25.25;23.50;;;;;;;;6491681;47;8871;-67
2023/10/29 06:31:41;;;;;;;;;23.50;22.00;;;;;;;;6489806;39;8905;-68
2023/10/29 06:37:53;;;;;;;;;24.50;22.25;;;;;;;;6489616;39;8983;-68
2023/10/29 06:44:00;;;;;;;;;23.25;21.75;;;;;;;;6490030;39;8862;-66
2023/10/29 06:50:09;;;;;;;;;25.67;23.67;;;;;;;;6489558;31;9560;-68
2023/10/29 06:56:13;;;;;;;;;25.00;20.33;;;;;;;;6490544;39;8909;-67
2023/10/29 07:02:17;;;;;;;;;19.75;19.75;;;;;;;;6307371;46;10000517;-70
2023/10/29 07:08:30;;;;;;;;;25.67;21.33;;;;;;;;6489266;39;8916;-67
2023/10/29 07:14:34;;;;;;;;;23.00;18.33;;;;;;;;6489645;31;8888;-67
2023/10/29 07:20:43;;;;;;;;;21.00;18.00;;;;;;;;6492769;31;9081;-67
2023/10/29 07:26:58;;;;;;;;;18.00;15.67;;;;;;;;6490564;46;8987;-67
2023/10/29 07:33:12;;;;;;;;;18.00;15.00;;;;;;;;6491168;39;9038;-68
2023/10/29 07:39:14;;;;;;;;;16.67;16.67;;;;;;;;6491403;39;9571;-67
2023/10/29 07:45:18;;;;;;;;;14.67;14.00;;;;;;;;6491566;31;8878;-68
2023/10/29 07:51:35;;;;;;;;;15.33;13.67;;;;;;;;6491808;39;8940;-67
2023/10/29 07:57:49;;;;;;;;;13.33;13.33;;;;;;;;6490942;39;9636;-68
2023/10/29 08:03:57;;;;;;;;;12.33;12.33;;;;;;;;6490984;46;8923;-67
2023/10/29 08:10:04;;;;;;;;;9.00;8.50;;;;;;;;6489926;39;8952;-67
2023/10/29 08:16:14;;;;;;;;;12.00;11.33;;;;;;;;6490983;46;9011;-67
2023/10/29 08:22:25;;;;;;;;;10.00;10.00;;;;;;;;6488293;39;9075;-67
2023/10/29 08:28:28;;;;;;;;;11.67;10.67;;;;;;;;6489949;31;9096;-68
2023/10/29 08:34:33;;;;;;;;;9.33;9.00;;;;;;;;6490918;46;8949;-68
2023/10/29 08:40:46;;;;;;;;;13.33;12.67;;;;;;;;6489799;46;8932;-66
2023/10/29 08:47:13;;;;;;;;;11.00;10.00;;;;;;;;6491438;39;8994;-67
2023/10/29 08:53:23;;;;;;;;;11.67;10.00;;;;;;;;6490828;39;9611;-67
2023/10/29 08:59:36;;;;;;;;;7.67;6.00;;;;;;;;6490542;39;8933;-66
2023/10/29 09:05:41;;;;;;;;;8.67;7.33;;;;;;;;6491309;39;8995;-68
2023/10/29 09:11:53;;;;;;;;;8.33;8.33;;;;;;;;6490638;39;8913;-67
2023/10/29 09:17:55;;;;;;;;;10.67;9.33;;;;;;;;6490864;39;8895;-68
2023/10/29 09:24:04;;;;;;;;;9.00;8.00;;;;;;;;6488672;46;8889;-65
2023/10/29 09:30:10;;;;;;;;;6.00;6.00;;;;;;;;6490577;39;9512;-68
2023/10/29 09:36:18;;;;;;;;;6.67;6.67;;;;;;;;6490619;46;8995;-68
2023/10/29 09:42:28;;;;;;;;;7.00;7.00;;;;;;;;6490605;39;9556;-69
2023/10/29 09:48:35;;;;;;;;;9.67;8.67;;;;;;;;6490931;39;8982;-68
2023/10/29 09:54:41;;;;;;;;;8.50;8.50;;;;;;;;6490134;39;8916;-66
2023/10/29 10:00:49;;;;;;;;;7.75;7.00;;;;;;;;6488224;39;8908;-68
2023/10/29 10:06:59;;;;;;;;;8.75;7.75;;;;;;;;6490205;39;8876;-67
2023/10/29 10:13:02;;;;;;;;;10.25;7.00;;;;;;;;6488598;47;8964;-67
2023/10/29 10:19:08;;;;;;;;;9.00;6.25;;;;;;;;6489347;31;8872;-68
2023/10/29 10:25:20;;;;;;;;;8.75;7.00;;;;;;;;6489611;39;8866;-67
2023/10/29 10:31:27;;;;;;;;;7.75;7.00;;;;;;;;6488598;39;8967;-67
2023/10/29 10:37:39;;;;;;;;;7.50;7.00;;;;;;;;6488184;39;8924;-67
2023/10/29 10:43:43;;;;;;;;;6.00;6.00;;;;;;;;6488439;39;8877;-67
2023/10/29 10:49:47;;;;;;;;;5.50;5.50;;;;;;;;6489959;39;8890;-66
2023/10/29 10:55:53;;;;;;;;;4.00;4.00;;;;;;;;6491372;31;8982;-67
2023/10/29 11:02:12;;;;;;;;;5.00;5.00;;;;;;;;6490344;46;8826;-69
2023/10/29 11:08:23;;;;;;;;;10.25;8.00;;;;;;;;6490564;39;8869;-68
2023/10/29 11:14:29;;;;;;;;;7.50;6.75;;;;;;;;6490308;39;8873;-67
2023/10/29 11:20:41;;;;;;;;;6.00;5.00;;;;;;;;6490236;39;8938;-68
2023/10/29 11:26:50;;;;;;;;;4.75;4.00;;;;;;;;6491079;39;9575;-68
2023/10/29 11:33:22;;;;;;;;;2.50;2.25;;;;;;;;6490929;39;8912;-67
2023/10/29 11:39:32;;;;;;;;;2.00;2.00;;;;;;;;6490664;31;8973;-67
2023/10/29 11:45:58;;;;;;;;;4.50;4.50;;;;;;;;6490857;39;8927;-68
2023/10/29 11:52:02;;;;;;;;;8.25;8.25;;;;;;;;6490291;46;9076;-68
2023/10/29 11:58:08;;;;;;;;;5.50;4.00;;;;;;;;6491223;39;8903;-68
2023/10/29 12:04:12;;;;;;;;;10.75;6.75;;;;;;;;6490024;39;9009;-69
2023/10/29 12:10:23;;;;;;;;;10.75;10.75;;;;;;;;6490146;46;8983;-68
2023/10/29 12:16:30;;;;;;;;;11.00;11.00;;;;;;;;6489630;39;9644;-67
2023/10/29 12:22:35;;;;;;;;;13.25;11.50;;;;;;;;6489121;39;8879;-67
2023/10/29 12:28:41;;;;;;;;;17.50;17.50;;;;;;;;6489894;39;8881;-67
2023/10/29 12:34:52;;;;;;;;;25.75;19.75;;;;;;;;6489029;39;8908;-67
2023/10/29 12:41:11;;;;;;;;;15.00;15.00;;;;;;;;6490017;39;8948;-67
2023/10/29 12:47:16;;;;;;;;;16.75;14.00;;;;;;;;6490121;39;8927;-68
2023/10/29 12:53:25;;;;;;;;;10.00;10.00;;;;;;;;6490230;46;8996;-69
2023/10/29 12:59:34;;;;;;;;;13.25;13.25;;;;;;;;6491153;46;8912;-67
2023/10/29 13:05:42;;;;;;;;;10.00;10.00;;;;;;;;6489344;31;8846;-67
2023/10/29 13:11:46;;;;;;;;;5.00;5.00;;;;;;;;6489223;39;8897;-68
2023/10/29 13:17:49;;;;;;;;;4.25;3.50;;;;;;;;6488951;31;8936;-68
2023/10/29 13:23:58;;;;;;;;;5.75;5.75;;;;;;;;6490154;39;8888;-67
2023/10/29 13:30:03;;;;;;;;;4.50;3.75;;;;;;;;6490253;39;8965;-67
2023/10/29 13:36:16;;;;;;;;;5.00;5.00;;;;;;;;6490398;31;8916;-68
2023/10/29 13:42:23;;;;;;;;;3.75;3.75;;;;;;;;6490040;39;8911;-68
2023/10/29 13:48:29;;;;;;;;;5.75;5.75;;;;;;;;6488935;46;8931;-69
2023/10/29 13:54:43;;;;;;;;;7.50;7.50;;;;;;;;6489965;39;8956;-67
2023/10/29 14:00:50;;;;;;;;;12.50;12.00;;;;;;;;6488692;39;8828;-68
2023/10/29 14:06:56;;;;;;;;;7.25;7.25;;;;;;;;6488339;46;8945;-69
2023/10/29 14:13:00;;;;;;;;;7.00;6.25;;;;;;;;6488973;39;8908;-68
2023/10/29 14:19:08;;;;;;;;;2.00;2.00;;;;;;;;6489047;47;8932;-67
2023/10/29 14:25:17;;;;;;;;;5.50;5.25;;;;;;;;6489926;39;8931;-68
2023/10/29 14:31:23;;;;;;;;;11.50;8.75;;;;;;;;6489788;46;8905;-68
2023/10/29 14:37:30;;;;;;;;;9.00;7.75;;;;;;;;6491099;39;8911;-70
2023/10/29 14:43:33;;;;;;;;;7.75;6.75;;;;;;;;6491172;39;8944;-68
2023/10/29 14:49:36;;;;;;;;;14.25;12.50;;;;;;;;6489885;46;8967;-68
2023/10/29 14:55:49;;;;;;;;;9.67;9.67;;;;;;;;6491177;39;8992;-67
2023/10/29 15:01:57;;;;;;;;;12.50;12.50;;;;;;;;6490439;39;8877;-67
2023/10/29 15:08:05;;;;;;;;;12.25;12.25;;;;;;;;6489790;39;8882;-69
2023/10/29 15:14:10;;;;;;;;;14.67;13.33;;;;;;;;6489998;46;8892;-69
2023/10/29 15:20:36;;;;;;;;;21.33;18.33;;;;;;;;6490506;39;8952;-69
2023/10/29 15:27:05;;;;;;;;;29.33;28.33;;;;;;;;6489115;39;8993;-66
2023/10/29 15:33:23;;;;;;;;;18.67;16.33;;;;;;;;6489362;31;9044;-67
2023/10/29 15:39:27;;;;;;;;;16.00;15.67;;;;;;;;6490214;39;8953;-67
2023/10/29 15:45:38;;;;;;;;;21.33;16.00;;;;;;;;6490139;39;8992;-68
2023/10/29 15:51:41;;;;;;;;;18.00;18.00;;;;;;;;6489345;46;8940;-68
2023/10/29 15:57:49;;;;;;;;;33.00;30.67;;;;;;;;6491623;31;9537;-69
2023/10/29 16:04:00;;;;;;;;;40.67;36.33;;;;;;;;6491090;31;8845;-66
2023/10/29 16:10:09;;;;;;;;;23.33;22.67;;;;;;;;6490531;39;8881;-68
2023/10/29 16:16:12;;;;;;;;;18.00;17.50;;;;;;;;6490060;46;8945;-68
2023/10/29 16:22:31;;;;;;;;;22.67;22.67;;;;;;;;6488710;46;8877;-68
2023/10/29 16:28:49;;;;;;;;;37.33;32.33;;;;;;;;6490452;46;8813;-67
2023/10/29 16:34:54;;;;;;;;;39.00;33.67;;;;;;;;6489130;39;8921;-67
2023/10/29 16:41:06;;;;;;;;;38.33;33.67;;;;;;;;6489615;46;8852;-68
2023/10/29 16:47:12;;;;;;;;;33.00;30.00;;;;;;;;6489272;46;8894;-69
2023/10/29 16:53:17;;;;;;;;;37.00;32.33;;;;;;;;6490009;31;8948;-67
2023/10/29 16:59:20;;;;;;;;;49.33;39.00;;;;;;;;6489250;31;8977;-69
2023/10/29 17:05:28;;;;;;;;;38.33;36.33;;;;;;;;6488797;39;8877;-68
2023/10/29 17:11:32;;;;;;;;;36.00;33.33;;;;;;;;6488292;39;8985;-68
2023/10/29 17:17:38;;;;;;;;;38.33;35.67;;;;;;;;6488548;46;8880;-67
2023/10/29 17:23:47;;;;;;;;;35.00;34.00;;;;;;;;6488870;39;8898;-67
2023/10/29 17:29:56;;;;;;;;;35.33;33.67;;;;;;;;6488425;46;8880;-68
2023/10/29 17:36:06;;;;;;;;;31.67;31.67;;;;;;;;6487093;46;8914;-68
2023/10/29 17:42:14;;;;;;;;;47.67;40.67;;;;;;;;6487768;31;8962;-67
2023/10/29 17:48:20;;;;;;;;;53.33;43.33;;;;;;;;6487296;46;8937;-68
2023/10/29 17:54:41;;;;;;;;;57.50;47.00;;;;;;;;6488659;31;8960;-69
2023/10/29 18:00:52;;;;;;;;;52.25;42.25;;;;;;;;6488198;39;9618;-68
2023/10/29 18:06:59;;;;;;;;;65.50;52.25;;;;;;;;6488648;39;9092;-67
2023/10/29 18:13:08;;;;;;;;;57.25;47.00;;;;;;;;6488261;46;8896;-68
2023/10/29 18:19:24;;;;;;;;;45.33;38.33;;;;;;;;6488605;39;8947;-68
2023/10/29 18:25:32;;;;;;;;;55.50;45.25;;;;;;;;6488712;46;8853;-67
2023/10/29 18:31:39;;;;;;;;;54.25;43.75;;;;;;;;6488133;47;8873;-68
2023/10/29 18:37:45;;;;;;;;;54.25;45.00;;;;;;;;6488002;31;8866;-67
2023/10/29 18:43:57;;;;;;;;;63.50;49.25;;;;;;;;6487187;39;8892;-69
2023/10/29 18:50:06;;;;;;;;;54.33;43.67;;;;;;;;6487110;46;8944;-68
2023/10/29 18:56:12;;;;;;;;;56.75;46.25;;;;;;;;6487345;47;9113;-67
2023/10/29 19:02:17;;;;;;;;;40.67;37.00;;;;;;;;6487901;39;8984;-69
2023/10/29 19:08:54;;;;;;;;;51.75;42.25;;;;;;;;6488432;39;9068;-67
2023/10/29 19:14:58;;;;;;;;;54.25;43.25;;;;;;;;6489771;31;8948;-68
2023/10/29 19:21:10;;;;;;;;;60.50;47.75;;;;;;;;6490144;39;8896;-68
2023/10/29 19:27:20;;;;;;;;;59.75;46.50;;;;;;;;6491903;39;9063;-68
2023/10/29 19:33:39;;;;;;;;;45.25;40.50;;;;;;;;6488930;39;9032;-68
2023/10/29 19:39:42;;;;;;;;;56.50;45.50;;;;;;;;6489643;31;8977;-67
2023/10/29 19:45:54;;;;;;;;;56.50;46.50;;;;;;;;6489217;46;8988;-69
2023/10/29 19:52:03;;;;;;;;;55.25;46.25;;;;;;;;6490030;31;9012;-69
2023/10/29 19:58:11;;;;;;;;;55.00;45.50;;;;;;;;6489852;46;8876;-67
2023/10/29 20:04:19;;;;;;;;;51.00;43.25;;;;;;;;6489829;31;8948;-67
2023/10/29 20:10:26;;;;;;;;;46.75;40.50;;;;;;;;6489167;46;8964;-69
2023/10/29 20:16:30;;;;;;;;;54.25;42.00;;;;;;;;6488740;46;8917;-68
2023/10/29 20:22:34;;;;;;;;;54.75;44.50;;;;;;;;6489266;39;9634;-67
2023/10/29 20:28:37;;;;;;;;;56.00;44.50;;;;;;;;6489163;39;8909;-69
2023/10/29 20:34:48;;;;;;;;;59.75;49.75;;;;;;;;6488696;39;9032;-68
2023/10/29 20:40:52;;;;;;;;;37.00;32.00;;;;;;;;6489907;31;8936;-68
2023/10/29 20:46:58;;;;;;;;;35.33;32.33;;;;;;;;6488432;46;8974;-67
2023/10/29 20:53:04;;;;;;;;;36.00;30.67;;;;;;;;6535321;36;9668;-69
2023/10/29 20:59:12;;;;;;;;;36.00;33.33;;;;;;;;6489182;39;8921;-67
2023/10/29 21:05:19;;;;;;;;;52.67;41.33;;;;;;;;6489051;39;8894;-69
2023/10/29 21:11:28;;;;;;;;;47.25;39.75;;;;;;;;6488676;39;8983;-68
2023/10/29 21:17:33;;;;;;;;;40.00;37.25;;;;;;;;6488936;39;8901;-68
2023/10/29 21:23:40;;;;;;;;;43.00;39.00;;;;;;;;6488127;31;8872;-66
2023/10/29 21:29:47;;;;;;;;;42.00;38.00;;;;;;;;6488093;39;8914;-68
2023/10/29 21:35:52;;;;;;;;;44.00;37.67;;;;;;;;6488714;39;8920;-67
2023/10/29 21:41:59;;;;;;;;;51.00;42.25;;;;;;;;6491023;39;8862;-69
2023/10/29 21:48:24;;;;;;;;;34.67;33.33;;;;;;;;6489099;39;8908;-69
2023/10/29 21:54:28;;;;;;;;;37.50;36.00;;;;;;;;6488420;39;9550;-67
2023/10/29 22:00:38;;;;;;;;;43.00;37.25;;;;;;;;6488208;39;8880;-68
2023/10/29 22:06:58;;;;;;;;;50.25;40.25;;;;;;;;6487586;39;8929;-67
2023/10/29 22:13:02;;;;;;;;;47.75;39.75;;;;;;;;6489394;39;9516;-67
2023/10/29 22:19:07;;;;;;;;;48.25;40.75;;;;;;;;6489178;39;8870;-67
2023/10/29 22:25:13;;;;;;;;;53.50;41.75;;;;;;;;6488935;39;8926;-67
2023/10/29 22:31:16;;;;;;;;;54.25;43.00;;;;;;;;6487732;39;8909;-68
2023/10/29 22:37:22;;;;;;;;;50.50;42.00;;;;;;;;6488573;31;8888;-68
2023/10/29 22:43:27;;;;;;;;;33.25;31.25;;;;;;;;6488282;46;9024;-67
2023/10/29 22:49:33;;;;;;;;;41.75;38.50;;;;;;;;6489545;39;8943;-67
2023/10/29 22:55:40;;;;;;;;;44.25;38.25;;;;;;;;6489410;31;8985;-68
2023/10/29 23:01:48;;;;;;;;;40.75;37.50;;;;;;;;6489941;31;8931;-67
2023/10/29 23:07:53;;;;;;;;;40.50;37.75;;;;;;;;6488452;39;8897;-68
2023/10/29 23:14:01;;;;;;;;;40.00;37.50;;;;;;;;6489709;46;8873;-67
2023/10/29 23:20:07;;;;;;;;;30.25;26.75;;;;;;;;6489530;46;8908;-67
2023/10/29 23:26:16;;;;;;;;;39.50;35.00;;;;;;;;6536077;36;8896;-68
2023/10/29 23:32:26;;;;;;;;;36.00;33.00;;;;;;;;6490156;39;8977;-67
2023/10/29 23:38:33;;;;;;;;;34.67;31.33;;;;;;;;6489084;39;9517;-67
2023/10/29 23:44:39;;;;;;;;;34.67;32.67;;;;;;;;6489108;46;8845;-67
2023/10/29 23:50:45;;;;;;;;;47.00;38.00;;;;;;;;6495585;39;8852;-66
2023/10/29 23:56:54;;;;;;;;;36.75;32.00;;;;;;;;6490833;46;8948;-67
